Time;durP1;ratioP1;P1;durP2;ratioP2;P2;SDS_P1;SDS_P2;PMS_P1;PMS_P2;Temp;Humidity;BMP_temperature;BMP_pressure;BME280_temperature;BME280_humidity;BME280_pressure;Samples;Min_cycle;Max_cycle;Signal;HPM_P1;HPM_P2
2022/09/20 00:01:42;;;;;;;4.00;2.80;;;9.70;1.00;;;;;;6271249;28;20237;-55
2022/09/20 00:04:48;;;;;;;2.73;2.63;;;9.70;1.00;;;;;;6280168;28;20311;-53
2022/09/20 00:07:52;;;;;;;2.93;2.83;;;9.60;1.00;;;;;;6277369;28;20237;-55
2022/09/20 00:11:00;;;;;;;2.87;2.77;;;9.60;1.00;;;;;;6281903;28;20735;-55
2022/09/20 00:14:07;;;;;;;2.50;2.47;;;9.60;1.00;;;;;;6281223;28;20229;-53
2022/09/20 00:17:10;;;;;;;3.00;2.90;;;9.60;1.00;;;;;;6267187;28;20230;-55
2022/09/20 00:20:13;;;;;;;2.63;2.50;;;9.50;1.00;;;;;;6277487;28;20230;-55
2022/09/20 00:23:18;;;;;;;2.90;2.70;;;9.50;1.00;;;;;;6279028;28;20234;-54
2022/09/20 00:26:21;;;;;;;3.60;3.00;;;9.40;1.00;;;;;;6257188;28;20527;-54
2022/09/20 00:29:24;;;;;;;2.77;2.70;;;9.40;1.00;;;;;;6256881;28;20440;-54
2022/09/20 00:32:27;;;;;;;3.17;2.97;;;9.40;1.00;;;;;;6259385;28;20364;-55
2022/09/20 00:35:30;;;;;;;2.77;2.60;;;9.40;1.00;;;;;;6281914;28;20616;-54
2022/09/20 00:38:34;;;;;;;3.20;3.10;;;9.40;1.00;;;;;;6281423;28;20233;-54
2022/09/20 00:41:37;;;;;;;3.10;2.90;;;9.30;1.00;;;;;;6280375;28;20252;-55
2022/09/20 00:44:49;;;;;;;3.93;2.90;;;9.30;1.00;;;;;;6282803;28;20244;-54
2022/09/20 00:47:55;;;;;;;3.30;2.77;;;9.30;1.00;;;;;;6281759;28;20233;-55
2022/09/20 00:51:03;;;;;;;3.30;3.20;;;9.30;1.00;;;;;;6281098;28;20253;-54
2022/09/20 00:54:09;;;;;;;2.63;2.63;;;9.30;1.00;;;;;;6274500;28;20831;-54
2022/09/20 00:57:12;;;;;;;3.37;2.70;;;9.40;1.00;;;;;;6255926;28;20685;-55
2022/09/20 01:00:15;;;;;;;3.70;3.60;;;9.30;1.00;;;;;;6257075;28;20238;-52
2022/09/20 01:03:21;;;;;;;3.10;3.00;;;9.30;1.00;;;;;;6269039;28;20220;-55
2022/09/20 01:06:24;;;;;;;3.50;3.20;;;9.30;1.00;;;;;;6288919;28;20609;-54
2022/09/20 01:09:29;;;;;;;3.13;3.03;;;9.20;1.00;;;;;;6282233;28;20728;-55
2022/09/20 01:12:34;;;;;;;3.10;3.00;;;9.20;1.00;;;;;;6281869;28;20546;-54
2022/09/20 01:15:39;;;;;;;3.43;3.23;;;9.20;1.00;;;;;;6261659;28;20238;-54
2022/09/20 01:18:44;;;;;;;3.20;3.00;;;9.20;1.00;;;;;;6253867;28;20233;-54
2022/09/20 01:21:48;;;;;;;3.40;3.30;;;9.10;1.00;;;;;;6283061;28;20512;-54
2022/09/20 01:24:59;;;;;;;3.70;3.60;;;9.10;1.00;;;;;;6286695;28;20242;-53
2022/09/20 01:28:04;;;;;;;4.20;4.00;;;9.20;1.00;;;;;;6286226;28;20832;-54
2022/09/20 01:31:11;;;;;;;3.67;3.37;;;9.20;1.00;;;;;;6268868;28;20907;-53
2022/09/20 01:34:17;;;;;;;4.47;3.50;;;9.10;1.00;;;;;;6285081;28;20233;-54
2022/09/20 01:37:26;;;;;;;3.07;2.97;;;9.20;1.00;;;;;;6305648;28;20311;-54
2022/09/20 01:40:37;;;;;;;2.90;2.80;;;9.20;1.00;;;;;;6273812;28;20234;-54
2022/09/20 01:43:48;;;;;;;2.60;2.50;;;9.20;1.00;;;;;;6272937;28;20314;-54
2022/09/20 01:47:00;;;;;;;2.50;2.50;;;9.10;1.00;;;;;;6283944;28;20252;-55
2022/09/20 01:50:09;;;;;;;2.67;2.60;;;9.10;1.00;;;;;;6288764;28;20236;-54
2022/09/20 01:53:48;;;;;;;4.27;3.07;;;9.10;1.00;;;;;;6280090;28;20729;-55
2022/09/20 01:57:32;;;;;;;2.80;2.60;;;9.10;1.00;;;;;;6283297;28;20238;-54
2022/09/20 02:00:52;;;;;;;3.00;2.80;;;9.10;1.00;;;;;;6284811;28;20234;-54
2022/09/20 02:04:20;;;;;;;2.83;2.70;;;9.10;1.00;;;;;;6281356;28;20237;-56
2022/09/20 02:07:48;;;;;;;2.60;2.50;;;9.00;1.00;;;;;;6297383;28;20232;-55
2022/09/20 02:11:13;;;;;;;3.40;3.20;;;9.00;1.00;;;;;;6310341;28;20844;-54
2022/09/20 02:14:32;;;;;;;3.17;3.03;;;9.00;1.00;;;;;;6288621;28;20261;-55
2022/09/20 02:17:45;;;;;;;2.90;2.90;;;9.00;1.00;;;;;;6284756;28;20237;-54
2022/09/20 02:20:56;;;;;;;3.00;2.90;;;9.00;1.00;;;;;;6284718;28;20340;-54
2022/09/20 02:24:13;;;;;;;3.20;3.10;;;9.00;1.00;;;;;;6258945;28;20237;-55
2022/09/20 02:27:26;;;;;;;3.10;2.90;;;9.00;1.00;;;;;;6268445;28;20237;-55
2022/09/20 02:30:41;;;;;;;3.00;2.87;;;9.00;1.00;;;;;;6271908;28;20250;-54
2022/09/20 02:34:02;;;;;;;2.70;2.70;;;9.20;1.00;;;;;;6277742;28;20450;-54
2022/09/20 02:37:20;;;;;;;3.20;2.60;;;9.00;1.00;;;;;;6288271;28;20237;-54
2022/09/20 02:41:01;;;;;;;3.37;3.07;;;9.10;1.00;;;;;;6283447;28;20608;-52
2022/09/20 02:44:10;;;;;;;2.83;2.83;;;9.10;1.00;;;;;;6269287;28;20248;-55
2022/09/20 02:47:22;;;;;;;2.60;2.60;;;9.10;1.00;;;;;;6283716;28;20267;-54
2022/09/20 02:50:37;;;;;;;2.60;2.50;;;9.20;1.00;;;;;;6279633;28;20229;-54
2022/09/20 02:53:47;;;;;;;2.63;2.53;;;9.20;1.00;;;;;;6283034;28;20230;-54
2022/09/20 02:56:58;;;;;;;2.97;2.73;;;9.20;1.00;;;;;;6281995;28;20244;-55
2022/09/20 03:00:05;;;;;;;2.93;2.70;;;9.20;1.00;;;;;;6283793;28;20236;-53
2022/09/20 03:03:16;;;;;;;2.40;2.40;;;9.20;1.00;;;;;;6283192;28;20243;-55
2022/09/20 03:06:28;;;;;;;2.87;2.70;;;9.30;1.00;;;;;;6288371;28;20714;-53
2022/09/20 03:09:38;;;;;;;2.60;2.60;;;9.30;1.00;;;;;;6275162;28;20416;-55
2022/09/20 03:12:52;;;;;;;2.80;2.60;;;9.30;1.00;;;;;;6264942;28;20244;-54
2022/09/20 03:16:05;;;;;;;2.70;2.70;;;9.30;1.00;;;;;;6283105;28;20234;-54
2022/09/20 03:19:18;;;;;;;2.47;2.47;;;9.60;1.00;;;;;;6282510;28;20232;-54
2022/09/20 03:22:34;;;;;;;2.30;2.30;;;9.30;1.00;;;;;;6272489;28;20736;-54
2022/09/20 03:25:51;;;;;;;2.70;2.50;;;9.30;1.00;;;;;;6283589;28;20245;-55
2022/09/20 03:29:02;;;;;;;2.70;2.50;;;9.30;1.00;;;;;;6255403;28;20648;-54
2022/09/20 03:32:15;;;;;;;2.70;2.60;;;9.30;1.00;;;;;;6244743;28;21595;-54
2022/09/20 03:35:30;;;;;;;2.70;2.70;;;9.40;1.00;;;;;;6259780;28;20738;-54
2022/09/20 03:38:55;;;;;;;2.80;2.70;;;9.40;1.00;;;;;;6264115;28;20705;-54
2022/09/20 03:42:15;;;;;;;4.10;2.90;;;9.40;1.00;;;;;;6271365;28;20249;-54
2022/09/20 03:45:38;;;;;;;2.47;2.43;;;9.40;1.00;;;;;;6281564;28;20464;-54
2022/09/20 03:49:10;;;;;;;2.43;2.43;;;9.40;1.00;;;;;;6281593;28;20233;-54
2022/09/20 03:52:25;;;;;;;2.60;2.60;;;9.50;1.00;;;;;;6282441;28;20316;-55
2022/09/20 03:55:49;;;;;;;2.90;2.80;;;9.50;1.00;;;;;;6281423;28;20248;-54
2022/09/20 03:59:08;;;;;;;3.40;3.30;;;9.60;1.00;;;;;;6255223;28;20310;-55
2022/09/20 04:02:46;;;;;;;4.17;3.80;;;9.60;1.00;;;;;;6276437;28;20760;-55
2022/09/20 04:06:09;;;;;;;3.60;3.40;;;9.60;1.00;;;;;;6264242;28;20225;-54
2022/09/20 04:09:31;;;;;;;2.93;2.83;;;9.60;1.00;;;;;;6288888;28;20234;-54
2022/09/20 04:12:48;;;;;;;3.40;3.30;;;9.80;1.00;;;;;;6285101;28;20237;-55
2022/09/20 04:16:04;;;;;;;3.17;3.03;;;9.60;1.00;;;;;;6295954;28;20613;-55
2022/09/20 04:19:15;;;;;;;3.40;3.30;;;9.70;1.00;;;;;;6280198;28;20246;-53
2022/09/20 04:22:21;;;;;;;3.40;3.30;;;9.70;1.00;;;;;;6282757;28;20869;-54
2022/09/20 04:25:30;;;;;;;2.90;2.80;;;9.70;1.00;;;;;;6277848;28;20614;-53
2022/09/20 04:28:40;;;;;;;3.47;3.27;;;9.70;1.00;;;;;;6283001;28;20236;-54
2022/09/20 04:31:50;;;;;;;3.33;3.23;;;9.70;1.00;;;;;;6279364;28;20980;-54
2022/09/20 04:38:28;;;;;;;3.17;3.07;;;9.70;1.00;;;;;;6262454;28;20248;-54
2022/09/20 04:42:14;;;;;;;3.57;2.90;;;9.70;1.00;;;;;;6283398;28;20291;-55
2022/09/20 04:45:43;;;;;;;3.53;3.13;;;9.70;1.00;;;;;;6279294;28;20715;-53
2022/09/20 04:49:20;;;;;;;3.20;3.10;;;9.70;1.00;;;;;;6283934;28;20555;-53
2022/09/20 04:52:56;;;;;;;3.07;2.97;;;9.70;1.00;;;;;;6284169;28;20243;-54
2022/09/20 04:56:01;;;;;;;3.53;3.23;;;9.70;1.00;;;;;;6276065;28;20328;-54
2022/09/20 04:59:06;;;;;;;3.43;3.33;;;9.70;1.00;;;;;;6296311;28;20237;-55
2022/09/20 05:02:43;;;;;;;3.07;2.97;;;9.60;1.00;;;;;;6289558;28;20336;-55
2022/09/20 05:06:24;;;;;;;3.63;3.33;;;9.70;1.00;;;;;;6291448;28;20588;-52
2022/09/20 05:09:56;;;;;;;3.23;3.03;;;9.70;1.00;;;;;;6227111;28;20232;-54
2022/09/20 05:13:16;;;;;;;3.00;3.00;;;9.70;1.00;;;;;;6286456;28;20238;-54
2022/09/20 05:16:25;;;;;;;3.33;3.30;;;9.70;1.00;;;;;;6291824;28;20629;-55
2022/09/20 05:19:36;;;;;;;3.27;3.07;;;9.80;1.00;;;;;;6290701;28;20622;-54
2022/09/20 05:23:16;;;;;;;2.80;2.80;;;9.80;1.00;;;;;;6295353;28;20248;-53
2022/09/20 05:26:29;;;;;;;3.43;3.20;;;9.80;1.00;;;;;;6265771;28;20680;-54
2022/09/20 05:29:39;;;;;;;3.20;3.10;;;9.90;1.00;;;;;;6282639;28;20240;-53
2022/09/20 05:32:48;;;;;;;3.07;2.97;;;9.90;1.00;;;;;;6290835;28;20245;-54
2022/09/20 05:36:04;;;;;;;3.37;3.07;;;9.90;1.00;;;;;;6280837;28;20709;-54
2022/09/20 05:39:18;;;;;;;2.97;2.90;;;10.00;1.00;;;;;;6279707;28;20586;-54
2022/09/20 05:42:31;;;;;;;3.23;3.00;;;10.10;1.00;;;;;;6276346;28;20225;-54
2022/09/20 05:45:49;;;;;;;3.43;3.37;;;10.20;1.00;;;;;;6280869;28;20257;-54
2022/09/20 05:48:57;;;;;;;3.00;3.00;;;10.30;1.00;;;;;;6256520;28;20229;-53
2022/09/20 05:52:31;;;;;;;3.43;3.13;;;10.40;1.00;;;;;;6289973;28;20237;-55
2022/09/20 05:55:53;;;;;;;3.13;2.97;;;10.50;1.00;;;;;;6292425;28;20539;-55
2022/09/20 05:59:12;;;;;;;2.90;2.80;;;10.60;1.00;;;;;;6281144;28;20240;-55
2022/09/20 06:02:27;;;;;;;3.07;2.87;;;10.70;1.00;;;;;;6294284;28;20233;-54
2022/09/20 06:05:41;;;;;;;3.50;3.27;;;10.80;1.00;;;;;;6279961;28;20298;-54
2022/09/20 06:09:11;;;;;;;3.33;3.13;;;10.90;1.00;;;;;;6292561;28;20233;-54
2022/09/20 06:12:34;;;;;;;3.10;3.10;;;10.90;1.00;;;;;;6285377;28;20244;-54
2022/09/20 06:15:45;;;;;;;3.30;3.00;;;11.00;1.00;;;;;;6279041;28;20242;-54
2022/09/20 06:19:01;;;;;;;3.03;2.93;;;11.10;1.00;;;;;;6280276;28;20237;-54
2022/09/20 06:22:11;;;;;;;6.27;2.80;;;11.20;1.00;;;;;;6287990;28;20662;-55
2022/09/20 06:25:22;;;;;;;2.93;2.83;;;11.20;1.00;;;;;;6292022;28;20775;-54
2022/09/20 06:28:29;;;;;;;3.63;3.13;;;11.30;1.00;;;;;;6290155;28;20430;-55
2022/09/20 06:31:32;;;;;;;3.47;3.37;;;11.30;1.00;;;;;;6288686;28;20240;-53
2022/09/20 06:34:36;;;;;;;3.70;2.60;;;11.30;1.00;;;;;;6283811;28;20235;-55
2022/09/20 06:44:28;;;;;;;3.10;2.80;;;11.40;1.00;;;;;;6277036;28;20239;-55
2022/09/20 06:47:31;;;;;;;3.40;3.20;;;11.50;1.00;;;;;;6282908;28;20403;-55
2022/09/20 06:50:42;;;;;;;3.40;3.30;;;11.60;1.00;;;;;;6286540;28;20260;-55
2022/09/20 06:53:45;;;;;;;3.03;2.90;;;11.80;1.00;;;;;;6290629;28;20503;-53
2022/09/20 06:56:50;;;;;;;3.27;3.17;;;11.90;1.00;;;;;;6289450;28;20240;-55
2022/09/20 06:59:53;;;;;;;2.90;2.80;;;12.00;1.00;;;;;;6292137;28;20702;-55
2022/09/20 07:02:56;;;;;;;3.10;2.80;;;11.90;1.00;;;;;;6281294;28;20607;-54
2022/09/20 07:06:00;;;;;;;2.70;2.70;;;11.90;1.00;;;;;;6279155;28;20244;-55
2022/09/20 07:09:05;;;;;;;3.40;3.20;;;11.80;1.00;;;;;;6279788;28;20233;-53
2022/09/20 07:12:10;;;;;;;3.67;3.30;;;11.70;1.00;;;;;;6282026;28;20244;-55
2022/09/20 07:15:15;;;;;;;5.73;3.60;;;11.70;1.00;;;;;;6297295;28;20225;-54
2022/09/20 07:18:18;;;;;;;3.23;3.00;;;11.50;1.00;;;;;;6278637;28;20619;-54
2022/09/20 07:21:21;;;;;;;3.63;3.43;;;11.50;1.00;;;;;;6265152;28;20285;-55
2022/09/20 07:24:24;;;;;;;3.07;2.97;;;11.50;1.00;;;;;;6269136;28;20238;-52
2022/09/20 07:27:29;;;;;;;3.40;3.20;;;11.30;1.00;;;;;;6286121;28;20241;-54
2022/09/20 07:30:32;;;;;;;4.40;3.47;;;11.30;1.00;;;;;;6291669;28;20233;-53
2022/09/20 07:33:35;;;;;;;2.63;2.63;;;11.30;1.00;;;;;;6267438;28;20408;-53
2022/09/20 07:36:38;;;;;;;3.47;3.27;;;11.30;1.00;;;;;;6278194;28;20237;-60
2022/09/20 07:39:41;;;;;;;3.50;3.30;;;11.30;1.00;;;;;;6295914;28;20236;-59
2022/09/20 07:42:45;;;;;;;4.17;3.67;;;11.40;1.00;;;;;;6286789;28;20260;-53
2022/09/20 07:45:53;;;;;;;3.70;3.50;;;11.40;1.00;;;;;;6282841;28;20239;-53
2022/09/20 07:48:56;;;;;;;3.50;3.30;;;11.50;1.00;;;;;;6286784;28;20237;-56
2022/09/20 07:51:59;;;;;;;3.77;3.30;;;11.50;1.00;;;;;;6282943;28;20245;-55
2022/09/20 07:55:02;;;;;;;3.47;3.27;;;11.60;1.00;;;;;;6289210;28;20736;-56
2022/09/20 07:58:06;;;;;;;3.90;3.70;;;11.70;1.00;;;;;;6294116;28;20236;-55
2022/09/20 08:01:12;;;;;;;4.67;3.67;;;11.80;1.00;;;;;;6282405;28;20290;-51
2022/09/20 08:04:15;;;;;;;3.63;3.33;;;11.90;1.00;;;;;;6284458;28;20240;-54
2022/09/20 08:07:18;;;;;;;4.87;3.40;;;12.00;1.00;;;;;;6278707;28;20460;-52
2022/09/20 08:10:20;;;;;;;3.57;3.30;;;12.00;1.00;;;;;;6287538;28;20617;-53
2022/09/20 08:13:25;;;;;;;3.23;3.13;;;12.10;1.00;;;;;;6285995;28;20237;-52
2022/09/20 08:16:50;;;;;;;6.60;3.20;;;12.20;1.00;;;;;;6280365;28;20233;-54
2022/09/20 08:19:53;;;;;;;3.70;3.40;;;12.40;1.00;;;;;;6276366;28;20312;-60
2022/09/20 08:22:58;;;;;;;4.07;3.10;;;12.50;1.00;;;;;;6285561;28;20403;-54
2022/09/20 08:26:24;;;;;;;4.00;3.70;;;12.60;1.00;;;;;;6282457;28;20229;-54
2022/09/20 08:29:28;;;;;;;3.60;3.40;;;12.70;1.00;;;;;;6290571;28;20236;-55
2022/09/20 08:32:31;;;;;;;5.40;3.67;;;12.90;1.00;;;;;;6291965;28;20256;-55
2022/09/20 08:35:35;;;;;;;4.03;3.23;;;13.00;1.00;;;;;;6284694;28;20235;-54
2022/09/20 08:38:42;;;;;;;3.37;3.17;;;13.20;1.00;;;;;;6296163;28;20244;-54
2022/09/20 08:42:14;;;;;;;3.60;3.30;;;13.30;1.00;;;;;;6289242;28;20353;-54
2022/09/20 08:45:22;;;;;;;4.60;3.20;;;13.40;1.00;;;;;;6283746;28;20240;-54
2022/09/20 08:48:36;;;;;;;4.07;3.10;;;13.50;1.00;;;;;;6284331;28;20225;-54
2022/09/20 08:51:41;;;;;;;3.10;3.00;;;13.60;1.00;;;;;;6289077;28;20249;-54
2022/09/20 08:54:44;;;;;;;3.10;3.00;;;13.60;1.00;;;;;;6288610;28;20291;-53
2022/09/20 08:57:49;;;;;;;3.67;3.00;;;13.60;1.00;;;;;;6294296;28;20241;-54
2022/09/20 09:00:57;;;;;;;3.30;3.10;;;13.70;1.00;;;;;;6292329;28;20248;-54
2022/09/20 09:04:11;;;;;;;3.17;2.87;;;13.90;1.00;;;;;;6293286;28;20729;-55
2022/09/20 09:07:16;;;;;;;2.93;2.60;;;14.00;1.00;;;;;;6287108;28;20241;-54
2022/09/20 09:10:20;;;;;;;3.40;2.53;;;14.10;1.00;;;;;;6287828;28;20236;-54
2022/09/20 09:13:26;;;;;;;2.10;2.10;;;14.20;1.00;;;;;;6286749;28;20506;-55
2022/09/20 09:16:34;;;;;;;2.77;2.60;;;14.30;1.00;;;;;;6283746;28;20233;-55
2022/09/20 09:19:45;;;;;;;3.73;2.30;;;14.40;1.00;;;;;;6287384;28;20371;-55
2022/09/20 09:22:58;;;;;;;2.50;2.40;;;14.50;1.00;;;;;;6286641;28;20241;-54
2022/09/20 09:26:05;;;;;;;2.50;2.30;;;14.60;1.00;;;;;;6297237;28;20237;-53
2022/09/20 09:29:16;;;;;;;2.30;2.10;;;14.60;1.00;;;;;;6290523;28;20232;-55
2022/09/20 09:32:23;;;;;;;2.90;2.70;;;14.70;1.00;;;;;;6287209;28;20238;-54
2022/09/20 09:35:30;;;;;;;3.50;2.50;;;14.80;1.00;;;;;;6285916;28;20240;-54
2022/09/20 09:38:34;;;;;;;4.67;2.40;;;15.00;1.00;;;;;;6287703;28;20248;-55
2022/09/20 09:41:37;;;;;;;4.37;2.47;;;15.00;1.00;;;;;;6287298;28;20248;-53
2022/09/20 09:44:40;;;;;;;2.53;2.40;;;15.10;1.00;;;;;;6282080;28;20232;-54
2022/09/20 09:47:45;;;;;;;4.17;2.43;;;15.30;1.00;;;;;;6285182;28;20237;-54
2022/09/20 09:50:48;;;;;;;4.07;2.67;;;15.40;1.00;;;;;;6285207;28;20241;-54
2022/09/20 09:53:53;;;;;;;5.23;2.80;;;15.50;1.00;;;;;;6282567;28;20253;-54
2022/09/20 09:57:23;;;;;;;4.17;2.53;;;15.70;1.00;;;;;;6285828;28;20229;-54
2022/09/20 10:00:27;;;;;;;2.57;2.37;;;15.60;1.00;;;;;;6285909;28;20225;-54
2022/09/20 10:03:45;;;;;;;3.33;2.50;;;15.70;1.00;;;;;;6284929;28;20727;-53
2022/09/20 10:06:55;;;;;;;3.23;2.47;;;15.70;1.00;;;;;;6285450;28;20503;-53
2022/09/20 10:10:07;;;;;;;2.70;2.60;;;15.70;1.00;;;;;;6289291;28;20238;-54
2022/09/20 10:13:22;;;;;;;2.40;2.27;;;15.70;1.00;;;;;;6293378;28;20633;-53
2022/09/20 10:16:32;;;;;;;6.87;2.30;;;15.80;1.00;;;;;;6294202;28;20311;-55
2022/09/20 10:19:56;;;;;;;3.27;2.93;;;15.70;1.00;;;;;;6285781;28;20241;-53
2022/09/20 10:23:09;;;;;;;2.77;2.67;;;15.60;1.00;;;;;;6284359;28;20931;-55
2022/09/20 10:27:00;;;;;;;3.83;3.27;;;15.60;1.00;;;;;;6284091;28;20874;-54
2022/09/20 10:30:10;;;;;;;3.77;3.20;;;15.60;1.00;;;;;;6287860;28;20233;-54
2022/09/20 10:33:22;;;;;;;3.90;3.60;;;15.70;1.00;;;;;;6280113;28;20237;-54
2022/09/20 10:36:36;;;;;;;3.37;3.27;;;15.80;1.00;;;;;;6282530;28;20233;-54
2022/09/20 10:39:40;;;;;;;4.17;3.90;;;16.10;1.00;;;;;;6295447;28;20252;-56
2022/09/20 10:46:19;;;;;;;3.83;3.60;;;16.10;1.00;;;;;;6296844;28;20619;-54
2022/09/20 10:49:40;;;;;;;3.60;3.40;;;16.10;1.00;;;;;;6294081;28;20229;-54
2022/09/20 10:53:03;;;;;;;3.50;3.30;;;15.90;1.00;;;;;;6294195;28;20256;-53
2022/09/20 10:56:19;;;;;;;4.33;4.00;;;15.60;1.00;;;;;;6289055;28;20229;-55
2022/09/20 10:59:37;;;;;;;6.20;3.33;;;15.40;1.00;;;;;;6289691;28;20237;-55
2022/09/20 11:02:49;;;;;;;4.70;4.10;;;15.20;1.00;;;;;;6292940;28;20717;-58
2022/09/20 11:06:05;;;;;;;4.00;3.70;;;15.10;1.00;;;;;;6286658;28;20620;-55
2022/09/20 11:09:13;;;;;;;3.87;3.47;;;15.00;1.00;;;;;;6276586;28;20233;-54
2022/09/20 11:12:23;;;;;;;4.00;3.53;;;14.90;1.00;;;;;;6279855;28;20252;-55
2022/09/20 11:15:32;;;;;;;3.93;3.73;;;14.70;1.00;;;;;;6296079;28;20233;-54
2022/09/20 11:18:40;;;;;;;5.97;3.37;;;14.60;1.00;;;;;;6288334;28;20252;-53
2022/09/20 11:21:48;;;;;;;2.87;2.67;;;14.20;1.00;;;;;;6284884;28;20682;-52
2022/09/20 11:24:58;;;;;;;2.97;2.67;;;13.80;1.00;;;;;;6286628;28;20654;-52
2022/09/20 11:28:09;;;;;;;2.40;2.33;;;13.40;1.00;;;;;;6296347;28;20312;-53
2022/09/20 11:31:19;;;;;;;2.70;2.60;;;13.10;1.00;;;;;;6290705;28;20626;-54
2022/09/20 11:34:28;;;;;;;2.50;2.30;;;12.90;1.00;;;;;;6288116;28;20218;-55
2022/09/20 11:37:37;;;;;;;4.37;2.50;;;12.60;1.00;;;;;;6284722;28;20447;-54
2022/09/20 11:40:45;;;;;;;2.40;2.30;;;12.40;1.00;;;;;;6289612;28;20233;-54
2022/09/20 11:43:50;;;;;;;2.33;2.33;;;12.40;1.00;;;;;;6279329;28;20232;-53
2022/09/20 11:46:59;;;;;;;2.50;2.30;;;12.40;1.00;;;;;;6287868;28;20578;-54
2022/09/20 11:50:44;;;;;;;2.60;2.40;;;12.30;1.00;;;;;;6287599;28;20237;-54
2022/09/20 11:54:04;;;;;;;2.57;2.47;;;12.30;1.00;;;;;;6285727;28;20697;-54
2022/09/20 11:57:14;;;;;;;2.40;2.30;;;12.30;1.00;;;;;;6285236;28;20234;-52
2022/09/20 12:00:29;;;;;;;2.27;2.27;;;12.40;1.00;;;;;;6279755;28;20229;-52
2022/09/20 12:03:36;;;;;;;2.80;2.60;;;12.50;1.00;;;;;;6278639;28;20230;-53
2022/09/20 12:06:41;;;;;;;2.73;2.63;;;12.50;1.00;;;;;;6284969;28;20462;-52
2022/09/20 12:09:51;;;;;;;2.93;2.73;;;12.50;1.00;;;;;;6291821;28;20373;-55
2022/09/20 12:13:00;;;;;;;2.63;2.63;;;12.60;1.00;;;;;;6284135;28;20554;-53
2022/09/20 12:16:05;;;;;;;2.67;2.63;;;12.70;1.00;;;;;;6276997;28;20229;-53
2022/09/20 12:19:12;;;;;;;3.07;2.87;;;12.80;1.00;;;;;;6280976;28;20232;-53
2022/09/20 12:22:28;;;;;;;4.40;3.73;;;12.90;1.00;;;;;;6291073;28;20245;-53
2022/09/20 12:25:36;;;;;;;4.23;3.93;;;13.20;1.00;;;;;;6275211;28;20240;-53
2022/09/20 12:28:43;;;;;;;4.57;4.17;;;13.60;1.00;;;;;;6279867;28;20244;-53
2022/09/20 12:31:48;;;;;;;4.13;3.97;;;13.90;1.00;;;;;;6283454;28;20245;-56
2022/09/20 12:34:51;;;;;;;5.23;4.20;;;14.20;1.00;;;;;;6265234;28;20301;-54
2022/09/20 12:37:54;;;;;;;5.10;4.63;;;14.30;1.00;;;;;;6271205;28;20230;-54
2022/09/20 12:41:06;;;;;;;4.57;4.20;;;14.40;1.00;;;;;;6274153;28;20245;-55
2022/09/20 12:44:31;;;;;;;4.23;3.97;;;14.70;1.00;;;;;;6287037;28;20239;-54
2022/09/20 12:47:36;;;;;;;3.07;2.87;;;14.70;1.00;;;;;;6288056;28;20698;-55
2022/09/20 12:54:04;;;;;;;3.87;2.30;;;14.80;1.00;;;;;;6278013;28;20229;-56
2022/09/20 12:57:18;;;;;;;6.27;2.70;;;14.70;1.00;;;;;;6284003;28;20233;-55
2022/09/20 13:00:36;;;;;;;2.60;2.60;;;14.50;1.00;;;;;;6284725;28;20260;-54
2022/09/20 13:03:41;;;;;;;2.73;2.53;;;14.70;1.00;;;;;;6279251;28;20437;-55
2022/09/20 13:06:44;;;;;;;1.90;1.80;;;14.90;1.00;;;;;;6295606;28;20233;-55
2022/09/20 13:09:48;;;;;;;1.80;1.80;;;15.00;1.00;;;;;;6276819;28;20233;-56
2022/09/20 13:12:56;;;;;;;1.50;1.50;;;14.90;1.00;;;;;;6287176;28;20241;-55
2022/09/20 13:16:04;;;;;;;1.67;1.67;;;14.50;1.00;;;;;;6286424;28;20243;-55
2022/09/20 13:19:16;;;;;;;1.47;1.47;;;14.20;1.00;;;;;;6294290;28;20602;-54
2022/09/20 13:22:23;;;;;;;1.70;1.70;;;13.80;1.00;;;;;;6287657;28;20241;-54
2022/09/20 13:25:27;;;;;;;1.70;1.70;;;13.60;1.00;;;;;;6290828;28;20234;-56
2022/09/20 13:28:34;;;;;;;1.67;1.67;;;13.40;1.00;;;;;;6293484;28;20370;-54
2022/09/20 13:31:39;;;;;;;2.13;1.90;;;13.30;1.00;;;;;;6291741;28;20245;-54
2022/09/20 13:34:42;;;;;;;1.80;1.80;;;13.40;1.00;;;;;;6278821;28;20240;-56
2022/09/20 13:37:52;;;;;;;1.90;1.90;;;13.50;1.00;;;;;;6284466;28;20618;-54
2022/09/20 13:41:03;;;;;;;1.70;1.70;;;13.80;1.00;;;;;;6285741;28;20240;-55
2022/09/20 13:44:06;;;;;;;2.00;1.90;;;14.00;1.00;;;;;;6284023;28;20236;-55
2022/09/20 13:47:24;;;;;;;2.10;1.90;;;14.40;1.00;;;;;;6280768;28;20233;-55
2022/09/20 13:50:29;;;;;;;1.60;1.60;;;14.70;1.00;;;;;;6289792;28;20238;-53
2022/09/20 13:53:34;;;;;;;1.77;1.77;;;14.90;1.00;;;;;;6278614;28;20237;-55
2022/09/20 13:56:44;;;;;;;1.73;1.70;;;15.00;1.00;;;;;;6287151;28;20268;-55
2022/09/20 13:59:48;;;;;;;1.90;1.90;;;15.00;1.00;;;;;;6288909;28;20237;-55
2022/09/20 14:02:54;;;;;;;1.80;1.80;;;15.00;1.00;;;;;;6285571;28;20241;-54
2022/09/20 14:06:00;;;;;;;1.77;1.77;;;15.10;1.00;;;;;;6279728;28;20225;-56
2022/09/20 14:09:07;;;;;;;1.83;1.77;;;15.30;1.00;;;;;;6282056;28;20251;-55
2022/09/20 14:12:13;;;;;;;1.80;1.80;;;15.20;1.00;;;;;;6290846;28;20248;-54
2022/09/20 14:15:17;;;;;;;1.60;1.60;;;15.30;1.00;;;;;;6278051;28;20235;-55
2022/09/20 14:18:23;;;;;;;1.63;1.63;;;15.30;1.00;;;;;;6268915;28;20559;-54
2022/09/20 14:21:28;;;;;;;4.53;1.60;;;15.40;1.00;;;;;;6265798;28;20522;-56
2022/09/20 14:24:34;;;;;;;1.47;1.47;;;15.30;1.00;;;;;;6283970;28;20221;-55
2022/09/20 14:27:36;;;;;;;1.63;1.63;;;15.50;1.00;;;;;;6285247;28;20229;-53
2022/09/20 14:30:40;;;;;;;1.87;1.63;;;15.50;1.00;;;;;;6288816;28;20238;-53
2022/09/20 14:33:48;;;;;;;1.50;1.50;;;15.60;1.00;;;;;;6279023;28;20605;-54
2022/09/20 14:37:05;;;;;;;1.50;1.50;;;15.80;1.00;;;;;;6285646;28;20373;-54
2022/09/20 14:40:19;;;;;;;2.00;1.90;;;16.00;1.00;;;;;;6279380;28;20233;-55
2022/09/20 14:43:28;;;;;;;1.50;1.50;;;16.10;1.00;;;;;;6288024;28;20230;-54
2022/09/20 14:46:34;;;;;;;1.30;1.30;;;16.20;1.00;;;;;;6287159;28;20240;-55
2022/09/20 14:49:44;;;;;;;1.77;1.43;;;16.20;1.00;;;;;;6284841;28;20237;-54
2022/09/20 14:52:47;;;;;;;1.37;1.37;;;16.10;1.00;;;;;;6283663;28;20237;-54
2022/09/20 14:56:08;;;;;;;1.63;1.63;;;16.00;1.00;;;;;;6290037;28;20313;-55
2022/09/20 14:59:24;;;;;;;1.57;1.57;;;15.90;1.00;;;;;;6278947;28;20236;-54
2022/09/20 15:02:27;;;;;;;1.60;1.60;;;15.80;1.00;;;;;;6286523;28;20777;-54
2022/09/20 15:05:32;;;;;;;1.73;1.70;;;15.40;1.00;;;;;;6282744;28;20239;-54
2022/09/20 15:08:35;;;;;;;1.50;1.50;;;15.20;1.00;;;;;;6279122;28;20229;-54
2022/09/20 15:11:39;;;;;;;1.83;1.83;;;15.10;1.00;;;;;;6273935;28;20259;-54
2022/09/20 15:14:43;;;;;;;2.57;2.03;;;14.90;1.00;;;;;;6283278;28;20729;-55
2022/09/20 15:17:47;;;;;;;1.77;1.67;;;14.80;1.00;;;;;;6285541;28;20233;-55
2022/09/20 15:20:52;;;;;;;1.90;1.90;;;14.80;1.00;;;;;;6285050;28;20248;-55
2022/09/20 15:23:55;;;;;;;1.60;1.50;;;14.80;1.00;;;;;;6281351;28;20252;-53
2022/09/20 15:26:57;;;;;;;1.63;1.53;;;14.80;1.00;;;;;;6286483;28;20245;-53
2022/09/20 15:30:00;;;;;;;1.93;1.93;;;14.70;1.00;;;;;;6274624;28;20797;-53
2022/09/20 15:33:03;;;;;;;1.90;1.80;;;14.50;1.00;;;;;;6278637;28;20233;-55
2022/09/20 15:36:08;;;;;;;1.60;1.60;;;14.50;1.00;;;;;;6273898;28;20233;-55
2022/09/20 15:39:11;;;;;;;1.50;1.50;;;14.40;1.00;;;;;;6276388;28;20233;-55
2022/09/20 15:42:14;;;;;;;1.77;1.73;;;14.40;1.00;;;;;;6269547;28;20237;-54
2022/09/20 15:45:19;;;;;;;1.70;1.60;;;14.10;1.00;;;;;;6276273;28;20650;-55
2022/09/20 15:48:24;;;;;;;1.70;1.70;;;13.90;1.00;;;;;;6281665;28;20235;-54
2022/09/20 15:51:29;;;;;;;1.73;1.73;;;13.60;1.00;;;;;;6281611;28;20236;-54
2022/09/20 15:54:32;;;;;;;2.10;1.90;;;13.40;1.00;;;;;;6275065;28;20712;-52
2022/09/20 15:57:35;;;;;;;1.87;1.87;;;13.20;1.00;;;;;;6280448;28;20228;-53
2022/09/20 16:00:39;;;;;;;3.27;1.90;;;13.00;1.00;;;;;;6276052;28;20242;-54
2022/09/20 16:03:43;;;;;;;1.73;1.70;;;12.90;1.00;;;;;;6277653;28;20244;-54
2022/09/20 16:06:49;;;;;;;2.20;2.07;;;12.80;1.00;;;;;;6283577;28;20336;-54
2022/09/20 16:09:52;;;;;;;1.97;1.70;;;12.70;1.00;;;;;;6281543;28;20726;-54
2022/09/20 16:12:55;;;;;;;1.90;1.80;;;12.60;1.00;;;;;;6274791;28;20634;-55
2022/09/20 16:15:59;;;;;;;2.10;2.10;;;12.60;1.00;;;;;;6286600;28;20726;-54
2022/09/20 16:19:19;;;;;;;1.80;1.80;;;12.50;1.00;;;;;;6279121;28;20233;-55
2022/09/20 16:22:24;;;;;;;2.30;2.27;;;12.50;1.00;;;;;;6275166;28;20582;-54
2022/09/20 16:25:26;;;;;;;2.77;2.60;;;12.50;1.00;;;;;;6278974;28;20234;-54
2022/09/20 16:28:29;;;;;;;2.30;2.20;;;12.50;1.00;;;;;;6281525;28;20249;-54
2022/09/20 16:31:36;;;;;;;2.40;2.20;;;12.40;1.00;;;;;;6272995;28;20236;-55
2022/09/20 16:34:39;;;;;;;2.00;2.00;;;12.40;1.00;;;;;;6273082;28;20237;-54
2022/09/20 16:37:43;;;;;;;2.83;2.73;;;12.40;1.00;;;;;;6275590;28;20343;-54
2022/09/20 16:40:48;;;;;;;2.00;2.00;;;12.40;1.00;;;;;;6280088;28;20660;-56
2022/09/20 16:43:51;;;;;;;2.23;2.23;;;12.30;1.00;;;;;;6283368;28;20249;-54
2022/09/20 16:46:54;;;;;;;2.43;2.43;;;12.20;1.00;;;;;;6278942;28;20253;-53
2022/09/20 16:49:57;;;;;;;2.57;2.47;;;12.20;1.00;;;;;;6280551;28;20243;-54
2022/09/20 16:53:01;;;;;;;2.40;2.27;;;12.10;1.00;;;;;;6283776;28;20241;-53
2022/09/20 16:56:06;;;;;;;2.33;2.33;;;12.00;1.00;;;;;;6274490;28;20611;-53
2022/09/20 16:59:09;;;;;;;2.43;2.33;;;12.00;1.00;;;;;;6283277;28;20232;-53
2022/09/20 17:02:12;;;;;;;3.00;2.80;;;11.90;1.00;;;;;;6285148;28;20344;-54
2022/09/20 17:05:15;;;;;;;2.73;2.63;;;11.90;1.00;;;;;;6284172;28;20235;-54